Rocha, Uruguay

8:01 PM UYST en Diciembre 22, 2014 (GMT -0200)
Capitan Curbelo International | Change Station
CLOSE
Current Station
Aeropuerto
Location: Capitan Corbeta,
Altura: 98 ft
Estaciones meteorológicas cercanas

Alt 98 ft 34.86 °S, 55.09 °W | Updated 1 hour ago

Scattered Clouds
Nubes dispersas
64 ° F
Sensación térmica 64 ° F
N
15
Viento Variable Viento desde Oeste

Hoy
Alta -- | Baja -- ° F
--% Posibilidad de precipitaciones
Ayer
Alta -- | Baja -- ° F
Precip. -- pul
6:21 AM 8:49 PM
Luna nueva, 1% visible
Presión 30.06 pul
Visibilidad 6.2 Millas
Nubes Baja 2000 ft
Nubes dispersas 3000 ft
Punto de rocío 63 ° F
Humedad 94%
Precipitaciones 0.00 pul
Espesor de la nieve No disponible.
UV 1 de una escala de 12
Polen No disponible.
Calidad del aire No disponible.
Flu Activity No disponible.
METAR SULS 222100Z 26013KT 9999 FEW020 SCT030 18/17 Q1018

More Conditions Fewer Conditions

Presión 30.06 pul
Visibilidad 6.2 Millas
Nubes Baja 2000 ft
Nubes dispersas 3000 ft
Punto de rocío 63 ° F
Humedad 94%
Precipitaciones 0.00 pul
Espesor de la nieve No disponible.
UV 1 de una escala de 12
Polen No disponible.
Calidad del aire No disponible.
Flu Activity No disponible.
METAR SULS 222100Z 26013KT 9999 FEW020 SCT030 18/17 Q1018

More Conditions Fewer Conditions

10-Day Weather Forecast

Almanac

Astronomía

Dec. 22, 2014 Salida Puesta
Hora real
Crepúsculo civil
Crepúsculo náutico
Crepúsculo astronómico
Luna
Horas de luz
Horas de luz
Tomorrow will be .
, % of the Moon is Illuminated

Extremos de hoy

Máximos del país Bajas del país

Community

WunderPhotos

Upload Photos

1,779,691 ¡fotos cargadas!

WunderBlogs® & News

Nearby

Calidad del aire

  Calidad del aire Índice AQ Contaminante
Not available.

Grosos de nieve

Estación Profundido Altura

Actividad de terremotos

Ciudad Distance Mag. Tiempo y dato
Magnitud mínima muestra es 2,5.

Temperaturas de aguas costeras

Lugar Temperatura

Estaciones meteorológicas cercanas